Time;durP1;ratioP1;P1;durP2;ratioP2;P2;SDS_P1;SDS_P2;PMS_P1;PMS_P2;Temp;Humidity;BMP_temperature;BMP_pressure;BME280_temperature;BME280_humidity;BME280_pressure;Samples;Min_cycle;Max_cycle;Signal;HPM_P1;HPM_P2
2022/04/16 00:01:49;;;;;;;3.28;2.55;;;15.50;60.90;;;;;;5050589;28;20657;-70
2022/04/16 00:04:15;;;;;;;3.58;2.60;;;15.50;60.90;;;;;;5048417;28;20517;-71
2022/04/16 00:06:44;;;;;;;3.97;2.95;;;15.40;60.80;;;;;;5030641;28;20478;-70
2022/04/16 00:09:11;;;;;;;3.75;2.72;;;;;;;;;;5031629;28;20387;-69
2022/04/16 00:11:38;;;;;;;4.03;3.00;;;15.50;60.80;;;;;;5030587;28;20415;-71
2022/04/16 00:14:05;;;;;;;3.33;2.70;;;;;;;;;;5031714;28;20415;-70
2022/04/16 00:16:32;;;;;;;3.67;3.03;;;15.60;61.20;;;;;;5054285;28;20393;-70
2022/04/16 00:18:59;;;;;;;3.80;2.63;;;16.10;61.20;;;;;;5054256;28;20390;-70
2022/04/16 00:21:26;;;;;;;3.83;2.50;;;15.50;61.30;;;;;;5054303;28;20083;-71
2022/04/16 00:23:54;;;;;;;3.90;2.78;;;15.60;61.20;;;;;;5054219;28;20669;-71
2022/04/16 00:26:21;;;;;;;3.17;2.40;;;;;;;;;;5034810;28;20148;-71
2022/04/16 00:28:48;;;;;;;4.50;3.05;;;15.50;60.90;;;;;;5034257;28;20049;-70
2022/04/16 00:31:15;;;;;;;3.83;3.03;;;15.50;60.80;;;;;;5033981;28;20057;-71
2022/04/16 00:33:41;;;;;;;3.88;2.88;;;15.60;55.70;;;;;;5035512;28;20140;-70
2022/04/16 00:36:08;;;;;;;4.28;2.80;;;15.40;61.10;;;;;;5035882;28;20076;-71
2022/04/16 00:38:35;;;;;;;3.92;3.00;;;15.50;61.10;;;;;;5035256;28;20049;-71
2022/04/16 00:41:04;;;;;;;3.97;3.13;;;15.40;54.50;;;;;;5034363;28;20049;-70
2022/04/16 00:43:30;;;;;;;3.78;2.88;;;15.40;61.10;;;;;;5035095;28;20100;-71
2022/04/16 00:45:58;;;;;;;3.33;2.70;;;15.50;61.00;;;;;;5050912;28;20052;-70
2022/04/16 00:48:26;;;;;;;3.70;2.70;;;15.50;60.90;;;;;;5053970;28;20329;-69
2022/04/16 00:50:54;;;;;;;4.70;3.38;;;15.10;54.40;;;;;;5053654;28;20053;-70
2022/04/16 00:53:20;;;;;;;3.83;2.78;;;15.00;60.70;;;;;;5054967;28;20059;-70
2022/04/16 00:55:47;;;;;;;3.90;2.92;;;15.50;61.30;;;;;;5038939;28;20053;-69
2022/04/16 00:58:15;;;;;;;3.70;2.88;;;15.40;54.60;;;;;;5034829;28;20050;-70
2022/04/16 01:00:42;;;;;;;4.18;3.03;;;;;;;;;;5033811;28;20061;-70
2022/04/16 01:03:09;;;;;;;4.65;2.85;;;15.40;61.00;;;;;;5034088;28;20053;-70
2022/04/16 01:05:37;;;;;;;3.65;2.85;;;15.40;61.20;;;;;;5033760;28;20526;-71
2022/04/16 01:08:04;;;;;;;4.07;3.10;;;15.20;60.90;;;;;;5034957;28;20046;-69
2022/04/16 01:10:32;;;;;;;2.88;2.55;;;15.30;58.30;;;;;;5033499;28;20083;-69
2022/04/16 01:13:01;;;;;;;3.58;2.90;;;15.40;60.60;;;;;;5033626;28;20060;-69
2022/04/16 01:15:29;;;;;;;3.35;2.78;;;15.10;61.10;;;;;;5044586;28;20080;-69
2022/04/16 01:17:57;;;;;;;3.60;2.80;;;;;;;;;;5053262;28;20148;-70
2022/04/16 01:20:24;;;;;;;3.78;2.83;;;15.10;60.90;;;;;;5053358;28;20057;-70
2022/04/16 01:22:54;;;;;;;3.88;3.13;;;15.30;54.60;;;;;;5053294;28;20063;-71
2022/04/16 01:25:24;;;;;;;5.10;3.17;;;15.10;58.60;;;;;;5044142;28;20115;-70
2022/04/16 01:27:52;;;;;;;3.55;3.05;;;;;;;;;;5034633;28;20075;-70
2022/04/16 01:30:19;;;;;;;3.20;2.70;;;15.30;54.60;;;;;;5033358;28;20056;-70
2022/04/16 01:32:48;;;;;;;3.65;3.00;;;15.30;61.00;;;;;;5034305;28;20140;-69
2022/04/16 01:35:16;;;;;;;4.07;3.00;;;15.10;60.80;;;;;;5033231;28;20054;-70
2022/04/16 01:37:43;;;;;;;4.25;3.10;;;15.30;56.10;;;;;;5032824;28;20418;-70
2022/04/16 01:40:14;;;;;;;3.78;3.08;;;16.00;61.40;;;;;;5033254;28;20053;-69
2022/04/16 01:42:41;;;;;;;4.00;2.90;;;;;;;;;;5033410;28;20160;-70
2022/04/16 01:45:09;;;;;;;4.30;2.90;;;15.30;54.60;;;;;;5040907;28;20501;-70
2022/04/16 01:47:36;;;;;;;6.18;3.30;;;15.20;61.00;;;;;;5054133;28;20049;-70
2022/04/16 01:50:04;;;;;;;3.90;3.20;;;;;;;;;;5052607;28;20049;-71
2022/04/16 01:52:30;;;;;;;4.03;3.33;;;15.30;61.30;;;;;;5052943;28;20491;-70
2022/04/16 01:54:58;;;;;;;3.78;3.17;;;;;;;;;;5046269;28;20132;-70
2022/04/16 01:57:26;;;;;;;3.92;3.30;;;15.50;61.40;;;;;;5035308;28;20052;-69
2022/04/16 01:59:53;;;;;;;4.03;3.00;;;15.10;61.00;;;;;;5032918;28;20703;-70
2022/04/16 02:02:20;;;;;;;3.67;3.03;;;;;;;;;;5032920;28;20057;-71
2022/04/16 02:04:47;;;;;;;4.13;3.22;;;15.30;61.10;;;;;;5037941;28;20048;-70
2022/04/16 02:07:14;;;;;;;4.57;3.50;;;;;;;;;;5036919;28;20048;-70
2022/04/16 02:09:41;;;;;;;4.13;3.20;;;15.30;61.20;;;;;;5050276;28;20135;-70
2022/04/16 02:12:09;;;;;;;4.43;3.10;;;15.40;55.90;;;;;;5052485;28;20063;-70
2022/04/16 02:14:37;;;;;;;4.15;3.40;;;15.20;60.90;;;;;;5049142;28;20063;-70
2022/04/16 02:17:04;;;;;;;3.72;3.08;;;15.30;61.20;;;;;;5052003;28;20417;-69
2022/04/16 02:19:33;;;;;;;5.40;3.72;;;15.40;59.40;;;;;;5053314;28;20045;-70
2022/04/16 02:22:00;;;;;;;5.15;3.72;;;;;;;;;;5053670;28;20049;-70
2022/04/16 02:24:27;;;;;;;4.38;3.40;;;15.50;61.30;;;;;;5053233;28;20057;-70
2022/04/16 02:26:55;;;;;;;4.22;3.40;;;;;;;;;;5053273;28;20049;-70
2022/04/16 02:29:22;;;;;;;4.15;3.60;;;;;;;;;;5051923;28;20049;-70
2022/04/16 02:31:50;;;;;;;4.95;3.50;;;15.10;60.70;;;;;;5052108;28;20053;-70
2022/04/16 02:34:19;;;;;;;5.18;3.85;;;15.30;61.10;;;;;;5051764;28;20077;-70
2022/04/16 02:36:45;;;;;;;3.97;3.35;;;14.90;61.00;;;;;;5052418;28;20521;-70
2022/04/16 02:39:14;;;;;;;5.25;4.32;;;;;;;;;;5051800;28;20441;-70
2022/04/16 02:41:41;;;;;;;4.32;3.80;;;15.40;61.10;;;;;;5051795;28;20140;-70
2022/04/16 02:47:04;;;;;;;4.85;3.80;;;15.40;61.10;;;;;;5051883;28;20059;-70
2022/04/16 02:47:05;;;;;;;6.13;4.30;;;15.40;61.20;;;;;;5052852;28;20045;-70
2022/04/16 02:49:32;;;;;;;5.03;3.83;;;15.40;61.20;;;;;;5052790;28;20106;-70
2022/04/16 02:51:59;;;;;;;4.57;3.42;;;15.20;60.80;;;;;;5051946;28;20061;-70
2022/04/16 02:54:26;;;;;;;4.85;3.67;;;15.30;60.80;;;;;;5051412;28;20088;-70
2022/04/16 02:56:52;;;;;;;5.05;4.07;;;15.80;61.30;;;;;;5051316;28;20382;-70
2022/04/16 02:59:19;;;;;;;5.57;4.03;;;;;;;;;;5051327;28;20048;-70
2022/04/16 03:01:46;;;;;;;5.10;4.18;;;15.40;61.10;;;;;;5052731;28;20075;-70
2022/04/16 03:04:14;;;;;;;6.18;4.38;;;15.40;54.50;;;;;;5052518;28;20045;-69
2022/04/16 03:06:41;;;;;;;5.45;4.70;;;;;;;;;;5050646;28;20057;-70
2022/04/16 03:09:09;;;;;;;6.07;4.57;;;15.00;60.70;;;;;;5051569;28;20064;-69
2022/04/16 03:11:36;;;;;;;5.78;4.50;;;15.40;60.90;;;;;;5052352;28;20087;-70
2022/04/16 03:17:31;;;;;;;5.63;4.80;;;14.80;59.50;;;;;;5052385;28;20572;-70
2022/04/16 03:19:35;;;;;;;5.72;4.70;;;15.40;54.50;;;;;;5030845;28;20049;-71
2022/04/16 03:22:02;;;;;;;5.68;4.50;;;;;;;;;;5031358;28;20061;-70
2022/04/16 03:24:29;;;;;;;6.35;4.90;;;15.70;61.20;;;;;;5032160;28;20053;-69
2022/04/16 03:26:56;;;;;;;5.80;4.80;;;15.50;57.50;;;;;;5032313;28;20410;-70
2022/04/16 03:29:22;;;;;;;6.60;5.60;;;15.20;61.00;;;;;;5031108;28;20136;-70
2022/04/16 03:31:49;;;;;;;5.95;4.90;;;15.50;61.10;;;;;;5031136;28;20051;-70
2022/04/16 03:34:16;;;;;;;6.03;4.85;;;;;;;;;;5030786;28;20469;-70
2022/04/16 03:36:44;;;;;;;5.57;4.65;;;15.00;60.60;;;;;;5049849;28;20134;-70
2022/04/16 03:39:11;;;;;;;6.22;4.60;;;15.10;60.70;;;;;;5050697;28;20048;-70
2022/04/16 03:41:38;;;;;;;5.78;4.95;;;15.40;60.80;;;;;;5051818;28;20059;-70
2022/04/16 03:44:06;;;;;;;7.05;5.45;;;15.00;60.50;;;;;;5051911;28;20444;-70
2022/04/16 03:46:32;;;;;;;6.55;5.10;;;15.50;56.10;;;;;;5049988;28;20065;-70
2022/04/16 03:48:59;;;;;;;6.10;5.13;;;15.50;56.70;;;;;;5050188;28;20139;-70
2022/04/16 03:51:27;;;;;;;6.72;4.70;;;;;;;;;;5050288;28;20087;-71
2022/04/16 03:53:55;;;;;;;7.05;5.60;;;15.50;61.10;;;;;;5051842;28;20068;-70
2022/04/16 04:01:50;;;;;;;6.47;5.07;;;15.40;61.20;;;;;;5050678;28;20053;-68
2022/04/16 04:04:17;;;;;;;6.20;4.85;;;;;;;;;;5051975;28;20049;-69
2022/04/16 04:06:44;;;;;;;7.00;5.25;;;15.40;61.10;;;;;;5046183;28;20055;-70
2022/04/16 04:09:12;;;;;;;6.57;5.35;;;15.40;54.40;;;;;;5041481;28;20568;-70
2022/04/16 04:11:38;;;;;;;6.72;5.97;;;15.30;61.10;;;;;;5040372;28;20072;-70
2022/04/16 04:14:05;;;;;;;6.13;5.00;;;15.40;58.40;;;;;;5042341;28;20055;-70
2022/04/16 04:16:32;;;;;;;6.03;5.03;;;15.30;61.20;;;;;;5042544;28;20046;-70
2022/04/16 04:18:59;;;;;;;6.97;5.30;;;;;;;;;;5041521;28;20139;-68
2022/04/16 04:21:26;;;;;;;6.28;5.05;;;15.00;61.00;;;;;;5039504;28;20148;-71
2022/04/16 04:23:53;;;;;;;6.28;4.72;;;15.30;60.80;;;;;;5040838;28;20128;-69
2022/04/16 04:26:21;;;;;;;6.50;5.20;;;15.40;61.00;;;;;;5041225;28;20046;-70
2022/04/16 04:28:48;;;;;;;6.05;4.97;;;;;;;;;;5041266;28;20072;-70
2022/04/16 04:31:15;;;;;;;6.05;4.72;;;15.30;60.90;;;;;;5041601;28;20071;-70
2022/04/16 04:33:41;;;;;;;6.50;4.82;;;15.30;61.00;;;;;;5038883;28;20046;-70
2022/04/16 04:36:08;;;;;;;5.97;5.00;;;15.10;61.00;;;;;;5043813;28;20056;-70
2022/04/16 04:38:35;;;;;;;5.95;4.50;;;15.30;60.80;;;;;;5041356;28;20042;-71
2022/04/16 04:41:04;;;;;;;6.38;5.00;;;;;;;;;;5039830;28;20433;-69
2022/04/16 04:43:32;;;;;;;6.90;4.60;;;14.90;60.50;;;;;;5040622;28;20080;-71
2022/04/16 04:45:58;;;;;;;5.78;4.47;;;14.90;60.60;;;;;;5043422;28;20045;-71
2022/04/16 04:48:25;;;;;;;5.43;4.30;;;15.40;61.10;;;;;;5040277;28;20049;-71
2022/04/16 04:50:52;;;;;;;6.28;5.05;;;;;;;;;;5039469;28;20061;-69
2022/04/16 04:53:19;;;;;;;4.88;4.22;;;15.30;61.00;;;;;;5047537;28;20071;-71
2022/04/16 04:55:46;;;;;;;6.38;4.88;;;15.40;60.90;;;;;;5041434;28;20057;-69
2022/04/16 04:58:12;;;;;;;6.35;4.82;;;15.30;61.00;;;;;;5030104;28;20060;-70
2022/04/16 05:00:40;;;;;;;6.05;4.60;;;15.20;61.10;;;;;;5033110;28;20075;-70
2022/04/16 05:03:07;;;;;;;6.07;4.43;;;15.40;61.00;;;;;;5035046;28;20045;-70
2022/04/16 05:05:34;;;;;;;5.40;4.30;;;;;;;;;;5035112;28;20049;-70
2022/04/16 05:08:01;;;;;;;4.97;4.00;;;15.30;60.80;;;;;;5043871;28;20047;-71
2022/04/16 05:10:28;;;;;;;4.80;4.07;;;15.30;61.00;;;;;;5054573;28;20051;-70
2022/04/16 05:12:57;;;;;;;6.32;4.93;;;15.30;55.70;;;;;;5053714;28;20485;-70
2022/04/16 05:15:23;;;;;;;5.35;4.35;;;15.40;60.80;;;;;;5048364;28;20059;-70
2022/04/16 05:17:51;;;;;;;5.50;4.40;;;15.30;54.20;;;;;;5033844;28;20080;-69
2022/04/16 05:20:20;;;;;;;5.60;4.10;;;;;;;;;;5033231;28;20163;-70
2022/04/16 05:22:47;;;;;;;5.00;4.10;;;15.20;60.60;;;;;;5033648;28;20049;-70
2022/04/16 05:25:14;;;;;;;5.55;4.38;;;15.40;60.90;;;;;;5038592;28;20052;-71
2022/04/16 05:27:41;;;;;;;6.15;4.32;;;;;;;;;;5053306;28;20055;-70
2022/04/16 05:30:14;;;;;;;5.88;4.32;;;14.90;60.30;;;;;;5054204;28;20130;-70
2022/04/16 05:32:42;;;;;;;5.07;3.92;;;15.90;60.90;;;;;;5053581;28;20132;-70
2022/04/16 05:35:11;;;;;;;4.85;4.00;;;15.00;60.30;;;;;;5050174;28;20113;-69
2022/04/16 05:37:37;;;;;;;5.28;4.00;;;15.30;60.80;;;;;;5033419;28;20053;-70
2022/04/16 05:40:05;;;;;;;5.20;4.18;;;14.90;60.20;;;;;;5032848;28;20157;-70
2022/04/16 05:42:32;;;;;;;5.47;4.10;;;15.50;60.50;;;;;;5034468;28;20049;-70
2022/04/16 05:45:02;;;;;;;4.55;3.85;;;15.70;60.60;;;;;;5035161;28;20045;-71
2022/04/16 05:47:29;;;;;;;5.30;4.38;;;15.00;60.30;;;;;;5052975;28;20053;-70
2022/04/16 05:49:56;;;;;;;4.72;3.65;;;;;;;;;;5052643;28;20099;-70
2022/04/16 05:52:24;;;;;;;5.85;3.85;;;14.80;60.10;;;;;;5053017;28;20052;-71
2022/04/16 05:54:51;;;;;;;5.70;3.97;;;15.50;60.50;;;;;;5053979;28;20075;-70
2022/04/16 05:57:18;;;;;;;5.07;4.00;;;;;;;;;;5032523;28;20049;-70
2022/04/16 05:59:45;;;;;;;5.50;3.80;;;15.50;60.70;;;;;;5034084;28;20052;-70
2022/04/16 06:02:11;;;;;;;4.28;3.72;;;15.10;60.30;;;;;;5033072;28;20063;-70
2022/04/16 06:04:38;;;;;;;6.18;3.85;;;15.50;56.70;;;;;;5032867;28;20055;-69
2022/04/16 06:07:05;;;;;;;5.45;4.20;;;15.50;60.60;;;;;;5050373;28;20409;-69
2022/04/16 06:09:33;;;;;;;4.35;3.50;;;15.40;53.80;;;;;;5053820;28;20044;-69
2022/04/16 06:12:02;;;;;;;4.88;3.97;;;15.50;53.80;;;;;;5052646;28;20079;-69
2022/04/16 06:14:29;;;;;;;6.07;3.42;;;15.50;60.50;;;;;;5053237;28;20045;-69
2022/04/16 06:16:55;;;;;;;5.05;3.75;;;15.50;60.30;;;;;;5036996;28;20490;-70
2022/04/16 06:19:23;;;;;;;5.03;3.60;;;;;;;;;;5031534;28;20053;-69
2022/04/16 06:21:50;;;;;;;4.82;3.22;;;15.30;60.40;;;;;;5032228;28;20054;-70
2022/04/16 06:24:17;;;;;;;4.75;3.70;;;15.50;60.40;;;;;;5032642;28;20057;-69
2022/04/16 06:26:47;;;;;;;4.28;3.40;;;15.50;60.20;;;;;;5040038;28;20409;-70
2022/04/16 06:29:13;;;;;;;4.78;3.53;;;15.30;60.20;;;;;;5042991;28;20563;-70
2022/04/16 06:31:40;;;;;;;5.43;3.92;;;15.60;60.10;;;;;;5043985;28;20132;-70
2022/04/16 06:34:07;;;;;;;4.07;3.28;;;15.00;59.50;;;;;;5047633;28;20492;-70
2022/04/16 06:36:34;;;;;;;4.32;3.22;;;15.40;60.00;;;;;;5045247;28;20055;-70
2022/04/16 06:39:01;;;;;;;4.03;2.95;;;;;;;;;;5044432;28;20057;-70
2022/04/16 06:41:28;;;;;;;4.65;3.40;;;;;;;;;;5042307;28;20044;-69
2022/04/16 06:43:56;;;;;;;4.55;3.20;;;15.90;59.90;;;;;;5042799;28;20059;-70
2022/04/16 06:46:22;;;;;;;4.10;3.08;;;16.10;59.80;;;;;;5040679;28;20045;-71
2022/04/16 06:48:49;;;;;;;4.43;2.92;;;;;;;;;;5033070;28;20056;-70
2022/04/16 06:51:16;;;;;;;3.90;2.53;;;16.30;59.60;;;;;;5032847;28;20049;-71
2022/04/16 06:53:43;;;;;;;4.90;3.20;;;;;;;;;;5032686;28;20045;-70
2022/04/16 06:56:10;;;;;;;3.65;2.65;;;16.40;59.30;;;;;;5033323;28;20107;-70
2022/04/16 06:58:37;;;;;;;4.75;3.20;;;16.70;58.90;;;;;;5032951;28;20540;-70
2022/04/16 07:01:05;;;;;;;4.18;2.60;;;17.30;58.90;;;;;;5032595;28;20068;-71
2022/04/16 07:03:32;;;;;;;4.53;2.85;;;17.70;58.70;;;;;;5032845;28;20405;-71
2022/04/16 07:05:58;;;;;;;4.82;2.70;;;17.10;58.30;;;;;;5039632;28;20041;-71
2022/04/16 07:08:25;;;;;;;4.32;2.42;;;17.30;58.40;;;;;;5051735;28;20053;-71
2022/04/16 07:10:52;;;;;;;3.60;2.63;;;16.50;57.80;;;;;;5052558;28;20389;-70
2022/04/16 07:13:18;;;;;;;3.42;2.60;;;17.10;57.60;;;;;;5051605;28;20057;-71
2022/04/16 07:15:45;;;;;;;3.63;2.42;;;17.30;57.50;;;;;;5047051;28;20076;-71
2022/04/16 07:18:13;;;;;;;3.03;2.05;;;17.50;56.50;;;;;;5031366;28;20060;-71
2022/04/16 07:20:40;;;;;;;3.90;2.63;;;17.60;57.40;;;;;;5032385;28;20049;-70
2022/04/16 07:23:07;;;;;;;4.20;2.35;;;17.70;57.30;;;;;;5032326;28;20509;-71
2022/04/16 07:25:34;;;;;;;3.00;2.17;;;17.90;51.80;;;;;;5035600;28;20090;-71
2022/04/16 07:28:01;;;;;;;3.05;2.40;;;17.70;57.00;;;;;;5051164;28;20139;-71
2022/04/16 07:30:28;;;;;;;2.42;1.90;;;18.60;57.50;;;;;;5050715;28;20055;-71
2022/04/16 07:32:55;;;;;;;2.38;1.90;;;18.00;56.90;;;;;;5052366;28;20456;-71
2022/04/16 07:35:23;;;;;;;3.45;1.98;;;18.30;57.20;;;;;;5049815;28;20061;-70
2022/04/16 07:37:51;;;;;;;3.20;2.10;;;18.10;57.00;;;;;;5032293;28;20103;-70
2022/04/16 07:40:17;;;;;;;2.78;2.17;;;17.90;56.70;;;;;;5030761;28;20084;-69
2022/04/16 07:42:44;;;;;;;2.58;1.90;;;17.90;56.70;;;;;;5031116;28;20049;-69
2022/04/16 07:45:11;;;;;;;2.00;1.80;;;18.00;56.00;;;;;;5030958;28;20065;-69
2022/04/16 07:47:37;;;;;;;2.00;1.80;;;18.20;56.60;;;;;;5050426;28;20391;-70
2022/04/16 07:50:05;;;;;;;3.35;1.90;;;17.10;56.10;;;;;;5050537;28;20057;-69
2022/04/16 07:52:33;;;;;;;2.22;1.67;;;18.30;56.40;;;;;;5052056;28;20049;-69
2022/04/16 07:55:00;;;;;;;2.55;1.80;;;18.50;56.80;;;;;;5051867;28;20049;-69
2022/04/16 07:57:26;;;;;;;2.08;1.65;;;18.20;56.60;;;;;;5051237;28;20049;-69
2022/04/16 07:59:54;;;;;;;2.17;1.70;;;18.20;54.70;;;;;;5052118;28;20045;-69
2022/04/16 08:02:20;;;;;;;2.00;1.55;;;18.10;56.10;;;;;;5032023;28;20061;-69
2022/04/16 08:04:47;;;;;;;2.53;2.08;;;18.10;51.30;;;;;;5031663;28;20049;-69
2022/04/16 08:07:14;;;;;;;2.05;1.52;;;18.00;56.40;;;;;;5030479;28;20053;-69
2022/04/16 08:09:42;;;;;;;2.35;1.70;;;18.20;56.40;;;;;;5045375;28;20426;-70
2022/04/16 08:12:09;;;;;;;1.80;1.33;;;18.10;56.10;;;;;;5044369;28;20045;-70
2022/04/16 08:14:35;;;;;;;2.22;1.50;;;18.10;55.70;;;;;;5048005;28;20060;-70
2022/04/16 08:17:02;;;;;;;2.22;1.50;;;18.20;56.20;;;;;;5042145;28;20494;-70
2022/04/16 08:19:29;;;;;;;1.90;1.55;;;18.20;56.30;;;;;;5042431;28;20515;-70
2022/04/16 08:21:56;;;;;;;1.98;1.42;;;18.50;56.30;;;;;;5042399;28;20053;-70
2022/04/16 08:24:38;;;;;;;3.08;1.50;;;;;;;;;;5043779;28;20077;-71
2022/04/16 08:27:07;;;;;;;2.58;1.40;;;18.50;56.40;;;;;;5048227;28;20045;-71
2022/04/16 08:29:33;;;;;;;3.10;1.65;;;19.10;56.70;;;;;;5050786;28;20516;-68
2022/04/16 08:32:01;;;;;;;2.15;1.60;;;18.50;56.50;;;;;;5036182;28;20056;-71
2022/04/16 08:34:28;;;;;;;1.75;1.42;;;18.60;56.20;;;;;;5046382;28;20103;-70
2022/04/16 08:36:54;;;;;;;1.48;1.30;;;18.50;56.30;;;;;;5042909;28;20407;-71
2022/04/16 08:39:21;;;;;;;2.17;1.30;;;18.60;55.90;;;;;;5035117;28;20060;-70
2022/04/16 08:41:48;;;;;;;1.70;1.30;;;18.60;55.80;;;;;;5034256;28;20059;-70
2022/04/16 08:44:19;;;;;;;1.70;1.45;;;17.80;55.60;;;;;;5035197;28;20052;-72
2022/04/16 08:46:45;;;;;;;1.50;1.30;;;18.50;55.90;;;;;;5034594;28;20067;-72
2022/04/16 08:49:12;;;;;;;2.25;1.40;;;18.40;55.30;;;;;;5048920;28;20514;-71
2022/04/16 08:51:39;;;;;;;1.65;1.30;;;18.80;56.00;;;;;;5053774;28;20506;-72
2022/04/16 08:54:06;;;;;;;2.05;1.30;;;;;;;;;;5054269;28;20075;-71
2022/04/16 08:56:33;;;;;;;1.55;1.20;;;18.50;55.80;;;;;;5047975;28;20481;-72
2022/04/16 08:59:00;;;;;;;2.30;1.40;;;18.80;55.70;;;;;;5047381;28;20387;-71
2022/04/16 09:01:28;;;;;;;1.40;1.20;;;17.80;55.10;;;;;;5053694;28;20053;-71
2022/04/16 09:03:58;;;;;;;1.40;1.10;;;;;;;;;;5051981;28;20045;-70
2022/04/16 09:06:25;;;;;;;1.23;1.10;;;18.50;55.50;;;;;;5041428;28;20444;-71
2022/04/16 09:08:52;;;;;;;1.77;1.33;;;18.20;55.20;;;;;;5051601;28;20045;-71
2022/04/16 09:11:21;;;;;;;2.95;1.13;;;18.60;49.70;;;;;;5042869;28;20044;-70
2022/04/16 09:13:52;;;;;;;1.40;1.20;;;18.80;55.80;;;;;;5047181;28;20055;-70
2022/04/16 09:16:20;;;;;;;2.90;1.27;;;18.50;55.50;;;;;;5042349;28;20053;-71
2022/04/16 09:18:50;;;;;;;1.83;1.20;;;18.70;55.80;;;;;;5050811;28;20053;-70
2022/04/16 09:21:17;;;;;;;1.88;1.20;;;18.50;55.60;;;;;;5053032;28;20041;-71
2022/04/16 09:23:51;;;;;;;1.23;1.08;;;18.80;55.50;;;;;;5043355;28;20049;-71
2022/04/16 09:26:32;;;;;;;2.55;1.20;;;18.50;55.70;;;;;;5033487;28;20491;-70
2022/04/16 09:29:05;;;;;;;1.40;1.00;;;18.50;55.40;;;;;;5034416;28;20081;-70
2022/04/16 09:31:34;;;;;;;1.40;1.10;;;19.30;56.00;;;;;;5033905;28;20060;-70
2022/04/16 09:34:02;;;;;;;1.30;1.02;;;18.90;55.40;;;;;;5038562;28;20068;-71
2022/04/16 09:36:29;;;;;;;1.75;1.10;;;;;;;;;;5053346;28;20500;-69
2022/04/16 09:39:03;;;;;;;2.30;1.13;;;18.90;55.50;;;;;;5053308;28;20057;-70
2022/04/16 09:41:33;;;;;;;3.05;1.08;;;18.80;55.10;;;;;;5052581;28;20059;-70
2022/04/16 09:44:00;;;;;;;1.45;1.10;;;18.60;55.10;;;;;;5052781;28;20139;-70
2022/04/16 09:46:28;;;;;;;2.38;1.20;;;18.90;55.50;;;;;;5052119;28;20061;-71
2022/04/16 09:48:55;;;;;;;1.23;0.90;;;18.80;55.50;;;;;;5052655;28;20048;-71
2022/04/16 09:51:24;;;;;;;1.45;1.10;;;18.90;55.50;;;;;;5054109;28;20079;-72
2022/04/16 09:53:50;;;;;;;1.38;1.00;;;18.30;55.10;;;;;;5052704;28;20063;-71
2022/04/16 09:56:17;;;;;;;1.15;0.90;;;18.90;55.30;;;;;;5052689;28;20132;-71
2022/04/16 09:58:45;;;;;;;1.85;1.10;;;18.50;55.30;;;;;;5052101;28;20383;-71
2022/04/16 10:01:11;;;;;;;1.45;1.00;;;19.30;55.70;;;;;;5053633;28;20543;-71
2022/04/16 10:03:39;;;;;;;1.05;0.95;;;19.00;55.60;;;;;;5046156;28;20041;-70
2022/04/16 10:06:05;;;;;;;2.10;0.90;;;19.40;55.60;;;;;;5040460;28;20056;-71
2022/04/16 10:08:34;;;;;;;3.95;1.20;;;19.60;50.60;;;;;;5043677;28;20052;-71
2022/04/16 10:11:03;;;;;;;2.70;1.00;;;18.80;55.40;;;;;;5053337;28;20540;-71
2022/04/16 10:13:32;;;;;;;2.90;0.93;;;18.60;55.40;;;;;;5052349;28;20053;-71
2022/04/16 10:16:02;;;;;;;2.30;1.17;;;18.70;55.50;;;;;;5040761;28;20397;-71
2022/04/16 10:18:29;;;;;;;3.60;0.95;;;18.80;55.30;;;;;;5047196;28;20144;-70
2022/04/16 10:20:56;;;;;;;1.13;0.90;;;18.80;55.70;;;;;;5031696;28;20054;-70
2022/04/16 10:23:28;;;;;;;5.00;1.08;;;18.70;55.40;;;;;;5043040;28;20146;-70
2022/04/16 10:26:02;;;;;;;2.97;1.10;;;18.60;55.50;;;;;;5036077;28;20053;-70
2022/04/16 10:28:34;;;;;;;2.53;1.08;;;18.80;55.80;;;;;;5033421;28;20049;-70
2022/04/16 10:31:01;;;;;;;1.77;1.02;;;18.90;55.30;;;;;;5036798;28;20140;-69
2022/04/16 10:33:28;;;;;;;1.90;0.98;;;19.20;55.70;;;;;;5052192;28;20413;-69
2022/04/16 10:35:56;;;;;;;4.70;1.20;;;18.80;51.10;;;;;;5050278;28;20056;-69
2022/04/16 10:38:24;;;;;;;5.40;1.10;;;18.70;49.20;;;;;;5042331;28;20107;-69
2022/04/16 10:40:58;;;;;;;2.58;0.85;;;18.70;49.80;;;;;;5031467;28;20049;-69
2022/04/16 10:43:28;;;;;;;2.15;0.90;;;18.80;54.70;;;;;;5041301;28;20063;-70
2022/04/16 10:46:02;;;;;;;1.77;0.80;;;19.40;54.80;;;;;;5050298;28;20413;-69
2022/04/16 10:48:30;;;;;;;3.30;0.90;;;18.70;49.30;;;;;;5046946;28;20052;-67
2022/04/16 10:50:57;;;;;;;3.10;1.42;;;18.40;54.00;;;;;;5035090;28;20505;-68
2022/04/16 10:53:29;;;;;;;2.85;0.85;;;18.80;54.70;;;;;;5042289;28;20131;-69
2022/04/16 10:55:55;;;;;;;2.25;0.90;;;18.90;54.60;;;;;;5042098;28;20053;-69
2022/04/16 10:58:30;;;;;;;1.88;0.98;;;18.90;54.50;;;;;;5038080;28;20048;-69
2022/04/16 11:01:05;;;;;;;1.40;0.90;;;17.80;54.20;;;;;;5036979;28;20052;-70
2022/04/16 11:03:31;;;;;;;;;;;18.70;49.30;;;;;;5051589;28;20486;-69
2022/04/16 11:06:01;;;;;;;0.75;0.70;;;18.80;54.90;;;;;;5046837;28;19976;-69
2022/04/16 11:08:27;;;;;;;1.02;0.70;;;18.60;54.50;;;;;;5041239;28;20057;-69
2022/04/16 11:10:57;;;;;;;1.23;0.80;;;18.40;54.30;;;;;;5043940;28;20045;-69
2022/04/16 11:13:24;;;;;;;1.25;0.82;;;18.40;54.20;;;;;;5043261;28;20091;-69
2022/04/16 11:15:52;;;;;;;0.73;0.73;;;18.60;54.40;;;;;;5042611;28;20046;-69
2022/04/16 11:18:19;;;;;;;1.35;0.70;;;17.80;54.00;;;;;;5041153;28;20077;-69
2022/04/16 11:20:55;;;;;;;2.10;1.08;;;18.70;54.80;;;;;;5042564;28;20041;-69
2022/04/16 11:23:25;;;;;;;1.27;0.70;;;18.80;55.10;;;;;;5041415;28;20411;-69
2022/04/16 11:34:17;;;;;;;;;;;18.60;49.50;;;;;;5048961;28;20090;-71
2022/04/16 11:36:44;;;;;;;1.10;0.85;;;18.70;54.80;;;;;;5040324;28;19925;-72
2022/04/16 11:39:17;;;;;;;1.77;0.70;;;18.40;50.90;;;;;;5030809;28;20059;-72
2022/04/16 11:41:47;;;;;;;0.90;0.70;;;17.80;54.20;;;;;;5041028;28;20409;-71
2022/04/16 11:44:14;;;;;;;1.70;1.00;;;18.70;54.80;;;;;;5048668;28;20367;-71
2022/04/16 11:46:42;;;;;;;0.70;0.60;;;18.80;54.60;;;;;;5050743;28;20053;-71
2022/04/16 11:49:09;;;;;;;2.65;0.80;;;18.80;54.90;;;;;;5038571;28;20049;-71
2022/04/16 11:51:38;;;;;;;1.30;0.70;;;18.70;54.40;;;;;;5030793;28;20057;-72
2022/04/16 11:54:04;;;;;;;0.95;0.70;;;18.50;55.00;;;;;;5038541;28;20269;-71
2022/04/16 11:56:31;;;;;;;1.08;0.70;;;18.60;54.70;;;;;;5052096;28;20044;-70
2022/04/16 11:58:58;;;;;;;0.82;0.70;;;18.60;54.60;;;;;;5046364;28;20048;-70
2022/04/16 12:01:24;;;;;;;2.17;1.00;;;18.70;54.40;;;;;;5033983;28;20056;-70
2022/04/16 12:03:53;;;;;;;1.17;0.80;;;19.20;55.10;;;;;;5049243;28;20057;-70
2022/04/16 12:06:19;;;;;;;1.10;0.80;;;18.30;51.70;;;;;;5050566;28;20088;-70
2022/04/16 12:08:47;;;;;;;0.90;0.73;;;18.50;54.90;;;;;;5032758;28;20058;-70
2022/04/16 12:11:14;;;;;;;2.33;0.80;;;17.70;54.40;;;;;;5031057;28;20046;-70
2022/04/16 12:13:42;;;;;;;0.88;0.70;;;18.80;54.80;;;;;;5048419;28;20059;-68
2022/04/16 12:16:10;;;;;;;1.23;0.90;;;18.70;54.30;;;;;;5035403;28;20049;-68
2022/04/16 12:18:38;;;;;;;0.98;0.85;;;;;;;;;;5050383;28;20068;-70
2022/04/16 12:21:10;;;;;;;0.85;0.80;;;19.10;55.00;;;;;;5051277;28;20052;-68
2022/04/16 12:23:38;;;;;;;1.00;0.70;;;18.50;55.30;;;;;;5030692;28;20053;-68
2022/04/16 12:26:05;;;;;;;1.85;0.70;;;18.60;50.20;;;;;;5030160;28;20457;-70
2022/04/16 12:28:33;;;;;;;2.00;0.90;;;18.60;53.80;;;;;;5043940;28;20056;-69
2022/04/16 12:31:00;;;;;;;1.00;0.80;;;17.60;53.90;;;;;;5038415;28;20049;-69
2022/04/16 12:33:27;;;;;;;0.80;0.70;;;18.60;54.60;;;;;;5031593;28;20387;-68
2022/04/16 12:35:55;;;;;;;0.70;0.70;;;18.90;54.80;;;;;;5036878;28;20067;-68
2022/04/16 12:38:24;;;;;;;2.13;1.23;;;18.50;49.40;;;;;;5035450;28;20091;-68
2022/04/16 12:40:51;;;;;;;0.90;0.70;;;18.60;54.30;;;;;;5030036;28;20056;-68
2022/04/16 12:43:18;;;;;;;1.45;0.70;;;;;;;;;;5030150;28;20064;-71
2022/04/16 12:45:45;;;;;;;1.15;0.73;;;18.60;54.30;;;;;;5046868;28;20052;-69
2022/04/16 12:48:12;;;;;;;1.55;0.80;;;19.20;54.70;;;;;;5046230;28;20055;-68
2022/04/16 12:50:39;;;;;;;0.82;0.68;;;;;;;;;;5030242;28;20058;-69
2022/04/16 12:53:05;;;;;;;0.60;0.60;;;18.90;54.80;;;;;;5034048;28;20049;-70
2022/04/16 12:55:35;;;;;;;0.65;0.65;;;18.50;54.40;;;;;;5050915;28;20049;-69
2022/04/16 12:58:01;;;;;;;0.82;0.70;;;19.00;54.80;;;;;;5048505;28;20067;-70
2022/04/16 13:00:28;;;;;;;0.82;0.70;;;18.40;54.20;;;;;;5031268;28;20132;-70
2022/04/16 13:02:55;;;;;;;0.88;0.60;;;18.70;54.70;;;;;;5031341;28;20079;-70
2022/04/16 13:05:22;;;;;;;1.67;0.80;;;19.00;54.80;;;;;;5035010;28;20056;-70
2022/04/16 13:07:49;;;;;;;2.35;0.80;;;;;;;;;;5038572;28;20060;-69
2022/04/16 13:10:16;;;;;;;0.80;0.70;;;18.50;54.60;;;;;;5042150;28;20091;-70
2022/04/16 13:12:44;;;;;;;1.02;0.60;;;18.10;54.10;;;;;;5043990;28;20045;-70
2022/04/16 13:15:11;;;;;;;1.33;0.88;;;18.50;54.40;;;;;;5040310;28;20048;-70
2022/04/16 13:17:39;;;;;;;0.80;0.70;;;18.50;54.60;;;;;;5038900;28;20505;-70
2022/04/16 13:20:07;;;;;;;0.88;0.70;;;18.50;54.90;;;;;;5036342;28;20058;-70